Time;durP1;ratioP1;P1;durP2;ratioP2;P2;SDS_P1;SDS_P2;PMS_P1;PMS_P2;Temp;Humidity;BMP_temperature;BMP_pressure;BME280_temperature;BME280_humidity;BME280_pressure;Samples;Min_cycle;Max_cycle;Signal;HPM_P1;HPM_P2
2021/06/06 00:00:46;;;;;;;7.45;4.00;;;;;;;11.60;70.30;96665.66;5095206;28;20028;-62
2021/06/06 00:03:28;;;;;;;7.38;4.15;;;;;;;11.58;70.85;96657.88;5095177;28;20097;-62
2021/06/06 00:05:59;;;;;;;6.30;4.25;;;;;;;11.60;70.89;96663.91;5095018;28;20028;-62
2021/06/06 00:08:26;;;;;;;7.43;4.28;;;;;;;11.57;70.81;96656.16;5095210;28;20028;-62
2021/06/06 00:11:06;;;;;;;8.85;4.10;;;;;;;11.47;71.22;96657.47;5095076;28;20031;-62
2021/06/06 00:13:32;;;;;;;5.53;4.53;;;;;;;11.48;71.32;96653.91;5094867;28;20397;-62
2021/06/06 00:15:58;;;;;;;8.02;3.80;;;;;;;11.42;71.18;96652.41;5094871;28;20020;-62
2021/06/06 00:18:24;;;;;;;7.68;3.85;;;;;;;11.43;71.25;96651.47;5094711;28;20054;-62
2021/06/06 00:20:50;;;;;;;10.18;4.00;;;;;;;11.40;71.15;96648.97;5094803;28;20070;-62
2021/06/06 00:23:15;;;;;;;6.50;3.45;;;;;;;11.38;71.31;96646.41;5094906;28;20531;-63
2021/06/06 00:25:41;;;;;;;5.57;4.03;;;;;;;11.36;71.29;96644.78;5094764;28;20077;-62
2021/06/06 00:28:07;;;;;;;7.20;4.18;;;;;;;11.39;71.51;96647.28;5094631;28;20028;-62
2021/06/06 00:30:34;;;;;;;7.43;3.60;;;;;;;11.42;71.63;96649.78;5094387;28;20024;-62
2021/06/06 00:32:59;;;;;;;4.95;3.47;;;;;;;11.41;71.10;96647.22;5094631;28;20031;-62
2021/06/06 00:35:25;;;;;;;7.20;3.75;;;;;;;11.42;71.19;96647.16;5094537;28;20401;-62
2021/06/06 00:37:51;;;;;;;4.15;3.78;;;;;;;11.40;71.51;96641.13;5094129;28;20508;-63
2021/06/06 00:40:23;;;;;;;8.63;5.00;;;;;;;11.40;71.72;96635.00;5094399;28;20031;-62
2021/06/06 00:42:48;;;;;;;5.60;3.75;;;;;;;11.43;71.57;96635.75;5094323;28;20432;-62
2021/06/06 00:45:19;;;;;;;9.00;3.65;;;;;;;11.41;71.12;96631.50;5076256;28;20020;-62
2021/06/06 00:47:45;;;;;;;4.85;3.95;;;;;;;11.38;71.02;96629.88;5094404;28;20027;-62
2021/06/06 00:50:15;;;;;;;9.95;4.65;;;;;;;11.35;71.25;96632.59;5094241;28;20024;-62
2021/06/06 00:52:44;;;;;;;9.00;4.40;;;;;;;11.34;71.55;96638.72;5094166;28;20023;-62
2021/06/06 00:55:10;;;;;;;9.32;3.95;;;;;;;11.30;71.93;96637.16;5094176;28;20151;-62
2021/06/06 00:57:38;;;;;;;7.57;4.30;;;;;;;11.25;71.46;96638.19;5094121;28;20016;-62
2021/06/06 01:00:10;;;;;;;7.45;3.53;;;;;;;11.15;71.72;96625.50;5094150;28;20466;-62
2021/06/06 01:02:36;;;;;;;6.00;4.43;;;;;;;11.14;72.11;96626.44;5092709;28;20099;-62
2021/06/06 01:05:02;;;;;;;7.55;4.90;;;;;;;11.16;71.91;96628.06;5093926;28;20099;-62
2021/06/06 01:07:27;;;;;;;4.88;4.35;;;;;;;11.22;71.94;96624.34;5093875;28;20020;-62
2021/06/06 01:09:53;;;;;;;8.55;4.45;;;;;;;11.16;72.26;96624.59;5093965;28;20043;-62
2021/06/06 01:12:31;;;;;;;6.43;5.05;;;;;;;11.14;72.56;96622.06;5093935;28;20035;-62
2021/06/06 01:15:01;;;;;;;5.38;4.18;;;;;;;11.12;72.42;96622.13;5093847;28;20032;-62
2021/06/06 01:17:35;;;;;;;3.42;3.08;;;;;;;11.14;72.28;96616.81;5093571;28;20028;-62
2021/06/06 01:20:18;;;;;;;5.45;4.20;;;;;;;11.12;72.21;96613.41;5093848;28;20119;-62
2021/06/06 01:23:32;;;;;;;6.00;5.13;;;;;;;11.15;72.50;96618.53;5093733;28;20365;-62
2021/06/06 01:26:02;;;;;;;4.60;4.18;;;;;;;11.15;72.33;96617.66;5061564;28;20040;-62
2021/06/06 01:28:42;;;;;;;5.03;4.25;;;;;;;11.16;72.40;96609.75;5093671;28;20513;-62
2021/06/06 01:31:10;;;;;;;5.00;3.45;;;;;;;11.15;72.35;96610.66;5093687;28;20394;-62
2021/06/06 01:33:46;;;;;;;6.55;5.00;;;;;;;11.06;72.92;96611.88;5093608;28;20020;-62
2021/06/06 01:36:24;;;;;;;6.03;4.22;;;;;;;11.07;73.05;96605.72;5093550;28;20058;-62
2021/06/06 01:39:18;;;;;;;5.78;4.30;;;;;;;11.11;72.94;96601.25;5093145;28;20048;-62
2021/06/06 01:41:50;;;;;;;8.05;4.15;;;;;;;11.10;72.72;96603.00;5087196;28;20036;-62
2021/06/06 01:44:20;;;;;;;5.22;4.18;;;;;;;11.05;72.96;96612.78;5093287;28;20016;-62
2021/06/06 01:47:09;;;;;;;10.00;5.72;;;;;;;10.93;73.78;96608.03;5093363;28;20070;-62
2021/06/06 01:49:41;;;;;;;7.60;3.88;;;;;;;10.97;73.51;96604.38;5093343;28;20481;-62
2021/06/06 01:52:10;;;;;;;5.38;4.43;;;;;;;11.02;73.08;96596.34;5093302;28;20024;-62
2021/06/06 01:54:37;;;;;;;8.23;4.22;;;;;;;11.00;73.17;96588.56;5093233;28;20138;-62
2021/06/06 01:57:10;;;;;;;6.38;5.00;;;;;;;11.00;73.00;96591.19;5093078;28;20095;-62
2021/06/06 01:59:42;;;;;;;6.70;4.75;;;;;;;10.95;72.97;96583.50;5093291;28;20032;-62
2021/06/06 02:02:10;;;;;;;9.18;4.53;;;;;;;10.87;73.68;96581.16;5093211;28;20501;-62
2021/06/06 02:04:36;;;;;;;12.98;5.63;;;;;;;10.86;73.80;96576.88;5093025;28;20032;-62
2021/06/06 02:07:18;;;;;;;7.25;4.13;;;;;;;10.86;73.51;96578.63;5093105;28;20039;-62
2021/06/06 02:09:52;;;;;;;6.03;4.47;;;;;;;10.81;73.75;96580.56;5093256;28;20028;-62
2021/06/06 02:12:18;;;;;;;7.90;5.53;;;;;;;10.79;74.12;96583.25;5093273;28;20057;-62
2021/06/06 02:14:46;;;;;;;5.78;4.28;;;;;;;10.82;73.30;96580.50;5093168;28;20017;-62
2021/06/06 02:17:25;;;;;;;8.20;4.43;;;;;;;10.81;73.01;96576.16;5095112;28;20031;-62
2021/06/06 02:19:51;;;;;;;5.80;4.40;;;;;;;10.80;72.78;96571.00;5094145;28;20529;-62
2021/06/06 02:22:17;;;;;;;5.18;4.68;;;;;;;10.82;72.79;96575.28;5093266;28;20486;-62
2021/06/06 02:24:44;;;;;;;8.20;5.15;;;;;;;10.84;73.03;96573.44;5093101;28;20543;-62
2021/06/06 02:27:20;;;;;;;7.85;5.47;;;;;;;10.86;72.61;96570.75;5092988;28;20045;-62
2021/06/06 02:29:59;;;;;;;8.70;4.43;;;;;;;10.89;72.67;96569.81;5093084;28;20031;-62
2021/06/06 02:32:45;;;;;;;10.48;5.53;;;;;;;10.88;73.01;96574.19;5092997;28;20028;-62
2021/06/06 02:35:22;;;;;;;9.27;3.75;;;;;;;10.92;72.94;96575.75;5093008;28;20028;-63
2021/06/06 02:37:53;;;;;;;6.85;4.03;;;;;;;10.90;72.28;96567.13;5092735;28;20090;-62
2021/06/06 02:40:32;;;;;;;5.75;4.50;;;;;;;10.92;72.36;96567.91;5092893;28;20099;-62
2021/06/06 02:43:07;;;;;;;6.05;4.28;;;;;;;10.93;72.21;96560.94;5092897;28;20016;-62
2021/06/06 02:45:33;;;;;;;6.55;4.95;;;;;;;10.91;72.49;96567.97;5092827;28;20028;-62
2021/06/06 02:48:05;;;;;;;8.57;5.47;;;;;;;10.94;72.42;96568.72;5093084;28;20020;-62
2021/06/06 02:50:39;;;;;;;5.03;4.53;;;;;;;10.93;72.76;96574.84;5092824;28;20409;-62
2021/06/06 02:53:38;;;;;;;10.43;5.05;;;;;;;10.91;72.28;96571.44;5093033;28;20047;-62
2021/06/06 02:56:18;;;;;;;5.00;4.50;;;;;;;10.91;72.91;96581.06;5096514;28;20028;-62
2021/06/06 02:58:59;;;;;;;7.38;4.85;;;;;;;10.89;73.22;96577.66;5096465;28;20043;-62
2021/06/06 03:01:38;;;;;;;9.35;4.75;;;;;;;10.92;73.55;96572.28;5096339;28;20106;-62
2021/06/06 03:04:09;;;;;;;11.07;5.15;;;;;;;10.96;72.95;96579.97;5096350;28;20381;-62
2021/06/06 03:06:50;;;;;;;8.45;4.82;;;;;;;10.98;73.23;96577.28;5096260;28;20028;-62
2021/06/06 03:09:17;;;;;;;10.10;4.45;;;;;;;11.02;73.06;96583.28;5096193;28;20145;-62
2021/06/06 03:11:45;;;;;;;10.05;4.43;;;;;;;11.07;72.79;96578.69;5096237;28;20020;-62
2021/06/06 03:14:16;;;;;;;7.53;4.20;;;;;;;11.08;73.24;96583.03;5096162;28;20028;-62
2021/06/06 03:17:02;;;;;;;;;;;;;;;11.15;72.94;96591.47;5096467;28;20031;-62
2021/06/06 03:19:29;;;;;;;7.30;4.00;;;;;;;11.12;73.02;96585.47;5095712;28;19916;-62
2021/06/06 03:21:56;;;;;;;12.85;5.82;;;;;;;11.12;72.55;96587.22;5095951;28;20209;-61
2021/06/06 03:24:35;;;;;;;6.43;4.75;;;;;;;11.24;73.03;96583.28;5095934;28;20020;-62
2021/06/06 03:27:03;;;;;;;4.70;4.30;;;;;;;11.48;72.57;96578.81;5095993;28;20032;-62
2021/06/06 03:29:34;;;;;;;5.85;4.03;;;;;;;11.88;71.77;96578.03;5095976;28;20032;-62
2021/06/06 03:32:05;;;;;;;;;;;;;;;12.34;70.97;96572.59;5096247;28;20021;-62
2021/06/06 03:34:32;;;;;;;5.93;3.40;;;;;;;12.77;69.47;96571.56;5095811;28;19920;-62
2021/06/06 03:36:57;;;;;;;8.93;3.67;;;;;;;13.24;68.29;96574.63;5095659;28;20109;-62
2021/06/06 03:39:28;;;;;;;5.28;3.30;;;;;;;13.73;66.94;96574.00;5095527;28;20498;-62
2021/06/06 03:41:59;;;;;;;5.03;3.25;;;;;;;14.20;65.59;96566.41;5095697;28;20036;-63
2021/06/06 03:44:26;;;;;;;5.28;3.05;;;;;;;14.63;64.04;96563.25;5095632;28;20103;-62
2021/06/06 03:46:53;;;;;;;4.78;2.70;;;;;;;15.09;62.98;96564.34;5095505;28;20100;-62
2021/06/06 03:49:19;;;;;;;3.28;2.97;;;;;;;15.55;62.01;96565.28;5095418;28;20031;-63
2021/06/06 03:51:46;;;;;;;6.75;2.97;;;;;;;15.99;60.60;96563.66;5095373;28;20032;-63
2021/06/06 03:54:13;;;;;;;6.65;3.17;;;;;;;16.31;60.08;96556.53;5095238;28;20028;-63
2021/06/06 03:56:41;;;;;;;4.93;3.20;;;;;;;16.60;59.47;96554.72;5095247;28;20644;-63
2021/06/06 03:59:08;;;;;;;5.75;2.67;;;;;;;16.91;58.62;96544.00;5095136;28;20017;-63
2021/06/06 04:01:34;;;;;;;3.65;3.30;;;;;;;17.22;57.97;96539.41;5095419;28;20020;-63
2021/06/06 04:03:59;;;;;;;8.05;3.25;;;;;;;17.55;56.51;96537.31;5095293;28;20022;-64
2021/06/06 04:06:25;;;;;;;5.53;3.08;;;;;;;17.84;56.16;96531.84;5094528;28;20024;-63
2021/06/06 04:08:52;;;;;;;5.30;2.75;;;;;;;18.10;55.61;96537.22;5095148;28;20108;-63
2021/06/06 04:11:19;;;;;;;3.25;2.35;;;;;;;18.42;54.98;96525.31;5095136;28;20028;-64
2021/06/06 04:13:45;;;;;;;4.43;2.90;;;;;;;18.63;55.09;96538.84;5095061;28;20027;-64
2021/06/06 04:16:10;;;;;;;4.93;2.90;;;;;;;18.93;54.57;96536.75;5094802;28;20016;-64
2021/06/06 04:18:36;;;;;;;4.40;2.78;;;;;;;19.13;54.39;96535.34;5094749;28;20028;-64
2021/06/06 04:21:08;;;;;;;3.40;3.05;;;;;;;19.38;54.47;96533.53;5094928;28;20103;-64
2021/06/06 04:23:35;;;;;;;6.93;2.70;;;;;;;19.68;53.59;96540.16;5094810;28;20039;-64
2021/06/06 04:26:02;;;;;;;4.18;2.85;;;;;;;20.01;53.59;96540.41;5094877;28;20047;-64
2021/06/06 04:28:28;;;;;;;4.53;3.10;;;;;;;20.32;52.30;96547.81;5094614;28;20032;-64
2021/06/06 04:30:55;;;;;;;4.47;2.80;;;;;;;20.60;52.20;96539.47;5094554;28;20103;-65
2021/06/06 04:33:22;;;;;;;4.82;3.05;;;;;;;20.83;51.22;96537.69;5094648;28;20108;-64
2021/06/06 04:35:48;;;;;;;4.28;2.63;;;;;;;21.04;51.24;96537.75;5094630;28;20028;-64
2021/06/06 04:38:22;;;;;;;5.80;3.30;;;;;;;21.29;50.93;96537.59;5094087;28;20113;-65
2021/06/06 04:40:49;;;;;;;4.97;3.45;;;;;;;21.59;49.87;96538.69;5094383;28;20070;-65
2021/06/06 04:43:15;;;;;;;6.50;3.45;;;;;;;21.78;49.79;96531.84;5094409;28;20028;-65
2021/06/06 04:45:40;;;;;;;4.47;3.20;;;;;;;21.85;50.39;96543.66;5094348;28;20412;-64
2021/06/06 04:48:12;;;;;;;4.10;3.15;;;;;;;21.99;49.63;96547.84;5094460;28;20020;-65
2021/06/06 04:50:38;;;;;;;6.50;3.38;;;;;;;22.26;50.08;96538.47;5094476;28;20077;-65
2021/06/06 04:53:04;;;;;;;3.70;3.20;;;;;;;22.58;49.22;96542.84;5094359;28;20026;-65
2021/06/06 04:55:30;;;;;;;3.22;2.83;;;;;;;22.90;48.90;96548.16;5094307;28;20535;-65
2021/06/06 04:57:55;;;;;;;7.05;2.75;;;;;;;23.14;48.35;96549.63;5094107;28;20016;-65
2021/06/06 05:00:28;;;;;;;5.43;2.78;;;;;;;23.37;48.05;96549.41;5094292;28;20024;-65
2021/06/06 05:02:54;;;;;;;3.70;2.53;;;;;;;23.60;47.09;96558.81;5094232;28;20111;-65
2021/06/06 05:05:21;;;;;;;3.40;2.88;;;;;;;23.70;46.45;96549.97;5094165;28;20058;-65
2021/06/06 05:07:56;;;;;;;4.60;2.90;;;;;;;23.84;46.11;96549.53;5094081;28;20020;-65
2021/06/06 05:10:23;;;;;;;4.75;3.08;;;;;;;24.05;44.57;96553.06;5094034;28;20027;-65
2021/06/06 05:12:49;;;;;;;8.25;2.92;;;;;;;24.16;46.46;96549.38;5093910;28;20020;-65
2021/06/06 05:15:17;;;;;;;6.13;3.28;;;;;;;24.36;44.36;96543.00;5093746;28;20024;-65
2021/06/06 05:17:42;;;;;;;3.63;3.25;;;;;;;24.50;43.75;96546.19;5093010;28;20047;-65
2021/06/06 05:20:10;;;;;;;4.78;2.92;;;;;;;24.59;43.71;96553.34;5093711;28;20485;-65
2021/06/06 05:22:36;;;;;;;7.05;3.00;;;;;;;24.76;45.96;96545.53;5093745;28;20020;-65
2021/06/06 05:25:03;;;;;;;3.38;2.78;;;;;;;24.99;44.64;96543.34;5093766;28;20029;-65
2021/06/06 05:27:30;;;;;;;5.60;3.17;;;;;;;25.24;45.88;96540.94;5093934;28;20032;-65
2021/06/06 05:29:56;;;;;;;6.70;2.75;;;;;;;25.42;44.34;96548.16;5093683;28;20024;-65
2021/06/06 05:32:22;;;;;;;4.93;2.95;;;;;;;25.59;43.96;96546.47;5093837;28;20051;-65
2021/06/06 05:34:48;;;;;;;7.40;2.97;;;;;;;25.72;45.72;96545.25;5093679;28;20101;-65
2021/06/06 05:37:14;;;;;;;4.40;2.85;;;;;;;25.96;43.82;96550.00;5093776;28;20369;-65
2021/06/06 05:39:41;;;;;;;3.47;2.63;;;;;;;26.21;43.41;96550.16;5093379;28;20478;-65
2021/06/06 05:42:08;;;;;;;3.10;2.80;;;;;;;26.43;42.97;96547.16;5093461;28;20377;-65
2021/06/06 05:44:34;;;;;;;4.05;2.80;;;;;;;26.48;42.13;96553.72;5093579;28;20020;-65
2021/06/06 05:47:00;;;;;;;3.53;2.90;;;;;;;26.59;42.14;96555.28;5093453;28;20027;-66
2021/06/06 05:49:26;;;;;;;7.45;2.83;;;;;;;26.85;41.19;96556.25;5093444;28;20077;-66
2021/06/06 05:51:52;;;;;;;4.65;2.70;;;;;;;26.78;41.35;96557.91;5093440;28;20032;-66
2021/06/06 05:54:17;;;;;;;3.20;2.90;;;;;;;26.73;41.45;96563.75;5093483;28;20021;-67
2021/06/06 05:56:44;;;;;;;5.00;3.20;;;;;;;26.84;41.44;96568.81;5093304;28;20020;-65
2021/06/06 05:59:10;;;;;;;4.95;2.70;;;;;;;27.10;41.29;96570.63;5093255;28;20028;-66
2021/06/06 06:01:36;;;;;;;3.13;2.58;;;;;;;27.27;40.43;96564.47;5093236;28;20116;-66
2021/06/06 06:04:02;;;;;;;2.85;2.65;;;;;;;27.37;40.91;96570.53;5093352;28;20024;-65
2021/06/06 06:06:28;;;;;;;3.00;2.70;;;;;;;27.31;39.33;96569.34;5093342;28;20023;-66
2021/06/06 06:08:56;;;;;;;3.67;2.80;;;;;;;27.41;38.60;96561.13;5093170;28;20012;-67
2021/06/06 06:11:23;;;;;;;4.07;2.70;;;;;;;27.70;39.13;96569.78;5093304;28;20066;-66
2021/06/06 06:13:51;;;;;;;5.53;3.20;;;;;;;27.66;38.34;96566.56;5093393;28;20054;-65
2021/06/06 06:16:20;;;;;;;4.32;2.60;;;;;;;27.83;38.54;96567.44;5093352;28;20401;-65
2021/06/06 06:18:49;;;;;;;7.33;2.70;;;;;;;28.02;35.65;96568.09;5093207;28;20111;-67
2021/06/06 06:21:16;;;;;;;5.57;2.63;;;;;;;28.27;38.26;96565.41;5093123;28;20027;-66
2021/06/06 06:23:43;;;;;;;3.30;2.60;;;;;;;28.43;38.27;96567.25;5092992;28;20047;-65
2021/06/06 06:26:10;;;;;;;3.90;2.38;;;;;;;28.63;37.21;96556.94;5093114;28;20024;-66
2021/06/06 06:28:36;;;;;;;4.43;2.55;;;;;;;28.68;37.65;96559.13;5094249;28;20101;-65
2021/06/06 06:31:03;;;;;;;4.65;2.90;;;;;;;28.76;36.58;96560.94;5096962;28;20032;-66
2021/06/06 06:33:28;;;;;;;2.88;2.40;;;;;;;29.00;37.79;96559.19;5096987;28;20059;-65
2021/06/06 06:35:54;;;;;;;5.63;2.80;;;;;;;29.16;37.51;96558.28;5097137;28;20051;-66
2021/06/06 06:38:21;;;;;;;4.35;2.70;;;;;;;29.26;35.55;96545.44;5096746;28;20552;-65
2021/06/06 06:40:48;;;;;;;5.13;2.10;;;;;;;29.49;36.98;96552.72;5096883;28;20027;-65
2021/06/06 06:43:14;;;;;;;5.95;2.85;;;;;;;29.57;35.05;96549.16;5096740;28;20051;-66
2021/06/06 06:45:42;;;;;;;3.10;2.25;;;;;;;29.45;34.88;96546.00;5096806;28;20059;-66
2021/06/06 06:48:12;;;;;;;2.88;2.65;;;;;;;29.46;36.53;96546.81;5096934;28;20146;-66
2021/06/06 06:50:39;;;;;;;5.07;2.53;;;;;;;29.46;35.63;96550.38;5095595;28;20405;-66
2021/06/06 06:53:06;;;;;;;4.40;2.25;;;;;;;29.42;36.20;96546.38;5096757;28;20474;-66
2021/06/06 06:55:32;;;;;;;5.57;2.75;;;;;;;29.66;35.62;96552.63;5096651;28;20028;-66
2021/06/06 06:57:59;;;;;;;6.25;2.75;;;;;;;29.68;35.22;96552.44;5096500;28;20035;-66
2021/06/06 07:00:38;;;;;;;3.67;2.50;;;;;;;29.93;35.01;96552.25;5096592;28;20131;-66
2021/06/06 07:03:06;;;;;;;4.50;2.20;;;;;;;29.97;34.78;96551.72;5096489;28;20024;-66
2021/06/06 07:05:32;;;;;;;4.18;2.40;;;;;;;30.20;34.69;96547.31;5096546;28;20075;-66
2021/06/06 07:07:58;;;;;;;4.20;2.13;;;;;;;30.06;35.11;96541.69;5096376;28;20039;-66
2021/06/06 07:10:28;;;;;;;3.03;2.55;;;;;;;30.07;33.88;96535.28;5096494;28;20024;-66
2021/06/06 07:12:54;;;;;;;3.67;2.50;;;;;;;30.12;34.24;96535.56;5095048;28;20410;-66
2021/06/06 07:15:21;;;;;;;2.35;2.10;;;;;;;29.82;34.83;96535.50;5096221;28;20032;-67
2021/06/06 07:17:47;;;;;;;3.97;2.42;;;;;;;29.70;36.41;96542.31;5096250;28;20107;-66
2021/06/06 07:20:17;;;;;;;6.38;3.00;;;;;;;29.83;36.41;96539.03;5096160;28;20024;-66
2021/06/06 07:22:43;;;;;;;;;;;;;;;30.11;36.44;96533.91;5096681;28;20036;-67
2021/06/06 07:25:13;;;;;;;4.93;2.40;;;;;;;30.02;37.98;96529.59;5096054;28;19920;-66
2021/06/06 07:27:43;;;;;;;5.20;2.70;;;;;;;29.98;36.54;96531.81;5096159;28;20028;-67
2021/06/06 07:30:13;;;;;;;5.15;2.67;;;;;;;30.26;35.31;96523.19;5096031;28;20086;-66
2021/06/06 07:32:39;;;;;;;5.80;2.80;;;;;;;30.43;35.23;96520.28;5095972;28;20398;-66
2021/06/06 07:35:06;;;;;;;4.80;2.45;;;;;;;30.36;35.17;96522.03;5095858;28;20070;-66
2021/06/06 07:37:33;;;;;;;6.85;2.35;;;;;;;30.57;35.32;96515.91;5095817;28;20126;-66
2021/06/06 07:39:59;;;;;;;6.15;2.67;;;;;;;30.80;34.99;96523.13;5094734;28;20119;-67
2021/06/06 07:42:26;;;;;;;6.57;3.03;;;;;;;30.59;35.75;96510.34;5096306;28;20383;-65
2021/06/06 07:44:53;;;;;;;4.40;2.55;;;;;;;30.49;34.63;96516.84;5095803;28;20019;-67
2021/06/06 07:47:18;;;;;;;5.22;2.35;;;;;;;30.49;35.25;96516.84;5095766;28;20024;-66
2021/06/06 07:49:44;;;;;;;8.63;2.78;;;;;;;30.42;33.90;96526.72;5095788;28;20077;-66
2021/06/06 07:52:10;;;;;;;4.30;2.40;;;;;;;30.37;36.21;96526.44;5096064;28;20020;-66
2021/06/06 07:54:36;;;;;;;4.18;2.70;;;;;;;30.41;35.85;96521.50;5096055;28;20028;-66
2021/06/06 07:57:03;;;;;;;5.38;2.42;;;;;;;30.29;34.66;96513.03;5096123;28;20398;-66
2021/06/06 07:59:30;;;;;;;4.55;2.30;;;;;;;30.34;36.78;96516.84;5096063;28;20024;-66
2021/06/06 08:01:55;;;;;;;6.50;2.60;;;;;;;30.31;37.00;96525.28;5095259;28;20028;-66
2021/06/06 08:04:22;;;;;;;3.72;2.42;;;;;;;30.52;35.39;96529.16;5095410;28;20027;-67
2021/06/06 08:06:48;;;;;;;7.05;2.40;;;;;;;30.27;35.04;96526.69;5095279;28;20103;-66
2021/06/06 08:09:14;;;;;;;3.50;2.33;;;;;;;30.23;35.40;96528.09;5095136;28;20157;-67
2021/06/06 08:11:41;;;;;;;5.15;2.22;;;;;;;30.44;33.25;96526.53;5095255;28;20035;-66
2021/06/06 08:14:07;;;;;;;5.60;2.40;;;;;;;30.69;35.02;96535.19;5095017;28;20047;-66
2021/06/06 08:16:35;;;;;;;3.20;2.20;;;;;;;30.45;34.63;96536.28;5095257;28;20047;-66
2021/06/06 08:19:01;;;;;;;4.15;2.25;;;;;;;30.46;33.66;96536.09;5095079;28;20035;-67
2021/06/06 08:21:40;;;;;;;5.07;2.35;;;;;;;30.62;33.78;96534.25;5095229;28;20024;-66
2021/06/06 08:24:09;;;;;;;5.18;2.10;;;;;;;30.62;32.15;96532.41;5094913;28;20025;-66
2021/06/06 08:26:35;;;;;;;4.22;2.08;;;;;;;30.12;30.76;96538.25;5094798;28;20020;-66
2021/06/06 08:29:01;;;;;;;5.00;2.17;;;;;;;30.00;35.56;96545.97;5094860;28;20035;-66
2021/06/06 08:31:35;;;;;;;4.30;2.08;;;;;;;29.84;34.11;96546.09;5094898;28;20160;-66
2021/06/06 08:34:00;;;;;;;4.97;2.38;;;;;;;29.58;34.37;96541.91;5094837;28;20505;-66
2021/06/06 08:36:42;;;;;;;5.43;2.15;;;;;;;29.69;34.96;96541.50;5094766;28;20070;-66
2021/06/06 08:39:14;;;;;;;2.78;2.20;;;;;;;29.71;34.58;96541.31;5094297;28;20516;-66
2021/06/06 08:42:05;;;;;;;4.03;2.05;;;;;;;29.99;35.95;96536.19;5094590;28;20032;-66
2021/06/06 08:44:36;;;;;;;4.15;2.88;;;;;;;30.16;32.45;96529.81;5094943;28;20422;-66
2021/06/06 08:47:05;;;;;;;4.10;2.20;;;;;;;30.14;33.57;96527.31;5093359;28;20047;-66
2021/06/06 08:49:52;;;;;;;3.05;2.47;;;;;;;30.13;33.79;96528.34;5094501;28;20027;-66
2021/06/06 08:52:41;;;;;;;4.93;2.10;;;;;;;30.13;34.49;96529.16;5094194;28;20039;-66
2021/06/06 08:55:31;;;;;;;3.17;2.23;;;;;;;30.05;32.74;96525.69;5094393;28;20489;-66
2021/06/06 08:58:22;;;;;;;3.75;2.05;;;;;;;29.74;32.66;96531.00;5094316;28;20276;-65
2021/06/06 09:01:02;;;;;;;3.83;2.25;;;;;;;29.83;33.75;96515.59;5094288;28;20390;-66
2021/06/06 09:03:30;;;;;;;2.08;1.92;;;;;;;29.82;35.76;96515.78;5094263;28;20103;-66
2021/06/06 09:06:09;;;;;;;6.85;2.03;;;;;;;29.78;35.58;96520.72;5094108;28;20051;-65
2021/06/06 09:08:38;;;;;;;6.03;2.15;;;;;;;29.74;36.27;96517.53;5094233;28;20473;-66
2021/06/06 09:11:12;;;;;;;3.20;2.20;;;;;;;29.61;35.36;96514.59;5094210;28;20020;-66
2021/06/06 09:13:39;;;;;;;8.68;2.55;;;;;;;29.62;33.52;96511.72;5094064;28;20032;-66
2021/06/06 09:16:18;;;;;;;4.72;2.17;;;;;;;29.73;32.07;96506.94;5094038;28;20028;-67
2021/06/06 09:18:47;;;;;;;4.22;2.00;;;;;;;29.56;33.53;96509.78;5094035;28;20371;-66
2021/06/06 09:21:20;;;;;;;5.55;2.35;;;;;;;29.66;33.15;96505.97;5093968;28;20027;-65
2021/06/06 09:23:52;;;;;;;2.78;1.92;;;;;;;29.86;32.62;96496.38;5093891;28;20382;-66
2021/06/06 09:26:17;;;;;;;2.28;2.03;;;;;;;29.86;32.89;96501.75;5093972;28;20038;-66
2021/06/06 09:28:46;;;;;;;3.15;2.10;;;;;;;29.87;33.05;96497.22;5093676;28;20024;-66
2021/06/06 09:31:22;;;;;;;3.75;2.28;;;;;;;30.02;34.51;96499.94;5093785;28;20505;-66
2021/06/06 09:33:57;;;;;;;3.42;2.72;;;;;;;30.01;31.93;96498.28;5093932;28;20075;-65
2021/06/06 09:36:33;;;;;;;14.02;2.70;;;;;;;29.95;33.56;96496.31;5093909;28;20028;-66
2021/06/06 09:39:02;;;;;;;8.20;2.15;;;;;;;29.97;32.61;96484.31;5093378;28;20054;-66
2021/06/06 09:41:32;;;;;;;5.10;2.45;;;;;;;29.92;34.46;96491.28;5093574;28;20394;-66
2021/06/06 09:44:07;;;;;;;4.05;2.42;;;;;;;29.98;33.81;96477.91;5093590;28;20020;-66
2021/06/06 09:46:46;;;;;;;4.15;2.33;;;;;;;30.01;34.03;96474.84;5093761;28;20028;-66
2021/06/06 09:49:27;;;;;;;2.75;2.17;;;;;;;29.82;33.90;96475.34;5093274;28;20100;-65
2021/06/06 09:51:55;;;;;;;6.68;2.88;;;;;;;29.67;33.27;96465.38;5093688;28;20043;-65
2021/06/06 09:54:32;;;;;;;6.97;2.10;;;;;;;29.78;33.98;96458.72;5093372;28;20466;-65
2021/06/06 09:57:05;;;;;;;3.38;2.17;;;;;;;29.95;35.24;96459.41;5093534;28;20020;-65
2021/06/06 09:59:34;;;;;;;3.20;2.33;;;;;;;29.83;34.95;96458.19;5093325;28;20028;-65
2021/06/06 10:02:28;;;;;;;3.20;2.25;;;;;;;30.04;34.38;96446.69;5093315;28;20504;-65
2021/06/06 10:05:07;;;;;;;2.20;2.00;;;;;;;29.81;31.37;96447.59;5091867;28;20510;-65
2021/06/06 10:07:39;;;;;;;2.50;2.05;;;;;;;29.42;33.59;96444.00;5093399;28;20066;-66
2021/06/06 10:10:26;;;;;;;5.60;2.33;;;;;;;29.39;32.13;96444.38;5093076;28;20469;-66
2021/06/06 10:12:53;;;;;;;4.85;2.05;;;;;;;29.52;31.97;96439.22;5093220;28;20056;-65
2021/06/06 10:15:25;;;;;;;7.28;2.30;;;;;;;29.79;34.57;96448.81;5093145;28;20078;-65
2021/06/06 10:17:57;;;;;;;9.25;2.50;;;;;;;30.02;33.76;96437.94;5093137;28;20024;-66
2021/06/06 10:20:33;;;;;;;4.47;2.20;;;;;;;30.14;33.25;96441.03;5093289;28;20432;-66
2021/06/06 10:23:07;;;;;;;4.50;2.20;;;;;;;30.21;34.62;96441.13;5093139;28;20020;-66
2021/06/06 10:25:58;;;;;;;4.75;2.20;;;;;;;30.29;32.05;96440.22;5091976;28;20024;-66
2021/06/06 10:28:34;;;;;;;3.85;2.20;;;;;;;30.11;34.11;96436.00;5093055;28;20397;-66
2021/06/06 10:31:17;;;;;;;3.28;1.92;;;;;;;30.09;33.24;96430.78;5093117;28;20024;-65
2021/06/06 10:34:05;;;;;;;2.25;1.95;;;;;;;30.24;30.90;96429.97;5093033;28;20077;-66
2021/06/06 10:36:35;;;;;;;3.72;2.22;;;;;;;30.35;34.50;96429.53;5092695;28;20085;-66
2021/06/06 10:39:02;;;;;;;5.88;2.55;;;;;;;30.30;32.33;96425.69;5092830;28;20480;-67
2021/06/06 10:41:37;;;;;;;4.65;2.05;;;;;;;30.11;33.44;96420.66;5093007;28;20028;-66
2021/06/06 10:44:19;;;;;;;6.35;2.13;;;;;;;29.98;33.20;96417.78;5093031;28;20119;-66
2021/06/06 10:46:53;;;;;;;4.88;2.65;;;;;;;29.72;34.56;96427.13;5093050;28;20505;-67
2021/06/06 10:49:21;;;;;;;3.10;2.25;;;;;;;29.35;32.93;96429.59;5092710;28;20029;-66
2021/06/06 10:52:00;;;;;;;2.83;1.88;;;;;;;29.07;33.37;96424.75;5092840;28;20470;-66
2021/06/06 10:54:35;;;;;;;7.28;2.40;;;;;;;28.81;36.21;96432.13;5093149;28;20027;-65
2021/06/06 10:57:22;;;;;;;6.60;2.33;;;;;;;28.84;36.22;96431.75;5092780;28;20114;-65
2021/06/06 10:59:53;;;;;;;2.90;2.28;;;;;;;28.83;36.26;96426.56;5092692;28;20028;-66
2021/06/06 11:02:54;;;;;;;;;;;;;;;28.75;33.49;96425.56;5093281;28;20378;-66
2021/06/06 11:05:36;;;;;;;4.57;2.38;;;;;;;28.84;36.74;96412.91;5070473;28;19912;-65
2021/06/06 11:08:03;;;;;;;6.15;2.63;;;;;;;29.07;35.62;96416.69;5090534;28;20047;-66
2021/06/06 11:10:32;;;;;;;3.70;2.33;;;;;;;29.08;34.35;96411.09;5092702;28;20508;-65
2021/06/06 11:13:09;;;;;;;3.15;2.45;;;;;;;29.00;33.22;96412.03;5092567;28;20030;-65
2021/06/06 11:15:40;;;;;;;3.15;2.42;;;;;;;28.78;35.61;96413.63;5093745;28;20020;-65
2021/06/06 11:18:27;;;;;;;10.35;2.53;;;;;;;28.51;37.56;96407.72;5096371;28;20393;-66
2021/06/06 11:21:00;;;;;;;2.80;2.60;;;;;;;28.48;36.75;96416.97;5096319;28;20040;-66
2021/06/06 11:23:42;;;;;;;6.20;2.60;;;;;;;28.19;35.11;96407.66;5096090;28;20047;-65
2021/06/06 11:26:39;;;;;;;2.40;2.20;;;;;;;28.00;35.58;96403.50;5096108;28;20047;-66
2021/06/06 11:29:19;;;;;;;3.35;2.50;;;;;;;27.84;33.91;96407.91;5095066;28;20039;-65
2021/06/06 11:32:17;;;;;;;2.88;2.67;;;;;;;27.76;35.37;96407.94;5096014;28;20032;-66
2021/06/06 11:34:51;;;;;;;2.78;2.45;;;;;;;27.71;34.26;96402.22;5095861;28;20043;-65
2021/06/06 11:37:29;;;;;;;5.03;2.67;;;;;;;27.73;35.97;96397.53;5095975;28;20119;-65
2021/06/06 11:39:57;;;;;;;4.07;2.55;;;;;;;27.92;36.74;96396.31;5095673;28;20048;-66
2021/06/06 11:42:25;;;;;;;2.83;2.40;;;;;;;27.84;38.08;96391.78;5095884;28;20406;-66
2021/06/06 11:44:56;;;;;;;3.33;2.45;;;;;;;27.83;34.92;96392.81;5095963;28;20533;-65
2021/06/06 11:47:33;;;;;;;2.97;2.45;;;;;;;27.84;37.15;96390.97;5095533;28;20069;-65
2021/06/06 11:50:10;;;;;;;7.85;2.60;;;;;;;28.03;38.88;96388.88;5095585;28;20024;-65
2021/06/06 11:52:42;;;;;;;3.40;1.90;;;;;;;27.88;34.99;96387.72;5095551;28;20093;-66